KEGE

Eagle County Regional Airport

Eagle, Colorado, USA
KEGE 141720Z 1418/1518 13005KT P6SM SKC FM151100 00000KT P6SM BKN200
Issued Valid From Valid To
Dec-14 @ 17:20 UTC
(4 hours ago)
Dec-14 @ 18:00 UTC
(4 hours ago)
Dec-15 @ 18:00 UTC
(in 20 hours)
Dec-14 @ 18:00 to Dec-15 @ 11:00
KEGE 141720Z 1418/1518 13005KT P6SM SKC
Wind Visibility Clouds
130° at 5 knots Greater than 6 miles
  • Clear skies
From Dec-15 @ 11:00 to Dec-15 @ 18:00
FM151100 00000KT P6SM BKN200
Visibility Clouds
Greater than 6 miles
  • Broken at 20,000' AGL
KEGE 141720Z 1418/1518 13005KT P6SM SKC FM151100 00000KT P6SM BKN200
Issued Dec-14 @ 17:20 UTC
(4 hours ago)
Valid From Dec-14 @ 18:00 UTC
(4 hours ago)
Valid To Dec-15 @ 18:00 UTC
(in 20 hours)
Dec-14 @ 18:00 - Dec-15 @ 11:00
Wind Visibility
130° at 5 knots Greater than 6 miles
Clouds
  • Clear skies
From Dec-15 @ 11:00 - Dec-15 @ 18:00
Clouds
  • Broken at 20,000' AGL